Rutland, IL (61358)

1:21 PM CDT on July 04, 2015 (GMT -0500)
APRSWXNET | | Change Station
CLOSE
Current Station
Personal Weather Station
Location: Woodford, IL
Elevation: 771 ft
Nearby Weather Stations
Active Advisory: Flood Warning

Elev 771 ft 40.89 °N, 89.03 °W | Updated 21 minutes ago

Clear
Clear
77 °F
Feels Like 79 °F
N
2
Wind Variable Wind from SSW
Gusts 7.0 mph

Today
High -- | Low -- °F
--% Chance of Precip.
Yesterday
High -- | Low -- °F
Precip. -- in
5:29 AM 8:31 PM
Waning Gibbous, 91% visible
Pressure 30.02 in
Visibility 10.0 miles
Clouds Clear
Heat Index 79 °F
Dew Point 63 °F
Humidity 62%
Rainfall in
Snow Depth Not available.
UV 12 out of 12
Pollen 4.10 out of 12
Air Quality Not available.
Flu Activity Not available.
METAR KC75 041815Z AUTO 20003KT 10SM CLR 26/13 A3002 RMK AO2 T02560128

More Conditions Fewer Conditions

Pressure 30.02 in
Visibility 10.0 miles
Clouds Clear
Heat Index 79 °F
Dew Point 63 °F
Humidity 62%
Rainfall in
Snow Depth Not available.
UV 12 out of 12
Pollen 4.10 out of 12
Air Quality Not available.
Flu Activity Not available.
METAR KC75 041815Z AUTO 20003KT 10SM CLR 26/13 A3002 RMK AO2 T02560128

More Conditions Fewer Conditions

10-Day Weather Forecast

×

Almanac

Astronomy

Jul. 04, 2015 Rise Set
Actual Time
Civil Twilight
Nautical Twilight
Astronomical Twilight
Moon
Length of Visible Light
Length of Day
Tomorrow will be .
, % of the Moon is Illuminated

Today's Extremes

State Highs State Lows

Community

WunderPhotos

Upload Photos

1,835,032 photos uploaded!

WunderBlogs® & News

Nearby

Air Quality

  Air Quality AQ Index Pollutant
Not available.

Snow Depth

Station Depth Elevation

Earthquake Activity

City Distance Mag. Time & Date
Minimum magnitude displayed is 2.5.

Coastal Water Temperatures

Place Temperature

Stations

Nearby Weather Stations

Station Location Temp. Windchill Dew Point Humidity Wind Precip. Elev Updated Type
                   
Flood Warning
Statement as of 8:32 AM CDT on July 04, 2015

The Flood Warning continues for
the Illinois River at La Salle.
* Until further notice.
* At 745 am Saturday the stage was 25.9 feet.
* Flood stage is 20.0 feet.
* Minor flooding is occurring and minor flooding is forecast.
* Forecast... the river will continue to fall to a stage of 25.1 feet
by Sunday morning.


Lat... Lon 4137 8896 4135 8929 4126 8930 4128 8896


Acs